sensor_id;sensor_type;location;lat;lon;timestamp;P1;durP1;ratioP1;P2;durP2;ratioP2
14292;SDS011;62290;59.420;17.842;2023-04-01T00:00:49;1.95;;;0.60;;
14292;SDS011;62290;59.420;17.842;2023-04-01T00:03:19;0.47;;;0.47;;
14292;SDS011;62290;59.420;17.842;2023-04-01T00:05:48;0.43;;;0.40;;
14292;SDS011;62290;59.420;17.842;2023-04-01T00:08:16;3.20;;;0.68;;
14292;SDS011;62290;59.420;17.842;2023-04-01T00:10:45;0.85;;;0.40;;
14292;SDS011;62290;59.420;17.842;2023-04-01T00:13:13;0.57;;;0.40;;
14292;SDS011;62290;59.420;17.842;2023-04-01T00:15:43;0.98;;;0.80;;
14292;SDS011;62290;59.420;17.842;2023-04-01T00:18:12;1.60;;;0.60;;
14292;SDS011;62290;59.420;17.842;2023-04-01T00:20:42;1.92;;;0.60;;
14292;SDS011;62290;59.420;17.842;2023-04-01T00:23:11;1.50;;;0.50;;
14292;SDS011;62290;59.420;17.842;2023-04-01T00:25:40;0.55;;;0.40;;
14292;SDS011;62290;59.420;17.842;2023-04-01T00:28:08;0.80;;;0.50;;
14292;SDS011;62290;59.420;17.842;2023-04-01T00:30:36;0.73;;;0.60;;
14292;SDS011;62290;59.420;17.842;2023-04-01T00:33:05;1.75;;;0.85;;
14292;SDS011;62290;59.420;17.842;2023-04-01T00:35:34;0.80;;;0.60;;
14292;SDS011;62290;59.420;17.842;2023-04-01T00:38:04;2.38;;;0.65;;
14292;SDS011;62290;59.420;17.842;2023-04-01T00:40:35;0.88;;;0.77;;
14292;SDS011;62290;59.420;17.842;2023-04-01T00:43:08;0.65;;;0.57;;
14292;SDS011;62290;59.420;17.842;2023-04-01T00:45:39;0.70;;;0.57;;
14292;SDS011;62290;59.420;17.842;2023-04-01T00:48:10;0.63;;;0.50;;
14292;SDS011;62290;59.420;17.842;2023-04-01T00:50:42;0.85;;;0.63;;
14292;SDS011;62290;59.420;17.842;2023-04-01T00:53:18;0.70;;;0.60;;
14292;SDS011;62290;59.420;17.842;2023-04-01T00:55:49;0.57;;;0.50;;
14292;SDS011;62290;59.420;17.842;2023-04-01T00:58:21;1.13;;;0.68;;
14292;SDS011;62290;59.420;17.842;2023-04-01T01:00:51;1.35;;;0.50;;
14292;SDS011;62290;59.420;17.842;2023-04-01T01:03:22;0.90;;;0.40;;
14292;SDS011;62290;59.420;17.842;2023-04-01T01:05:54;1.25;;;0.77;;
14292;SDS011;62290;59.420;17.842;2023-04-01T01:08:33;0.60;;;0.47;;
14292;SDS011;62290;59.420;17.842;2023-04-01T01:11:11;0.95;;;0.70;;
14292;SDS011;62290;59.420;17.842;2023-04-01T01:13:41;0.85;;;0.65;;
14292;SDS011;62290;59.420;17.842;2023-04-01T01:16:17;1.88;;;0.60;;
14292;SDS011;62290;59.420;17.842;2023-04-01T01:18:55;0.68;;;0.55;;
14292;SDS011;62290;59.420;17.842;2023-04-01T01:21:38;0.93;;;0.65;;
14292;SDS011;62290;59.420;17.842;2023-04-01T01:24:20;0.73;;;0.55;;
14292;SDS011;62290;59.420;17.842;2023-04-01T01:27:03;1.35;;;0.80;;
14292;SDS011;62290;59.420;17.842;2023-04-01T01:29:46;0.68;;;0.57;;
14292;SDS011;62290;59.420;17.842;2023-04-01T01:32:34;0.43;;;0.43;;
14292;SDS011;62290;59.420;17.842;2023-04-01T01:35:19;0.95;;;0.60;;
14292;SDS011;62290;59.420;17.842;2023-04-01T01:37:51;1.40;;;0.65;;
14292;SDS011;62290;59.420;17.842;2023-04-01T01:40:23;1.15;;;0.63;;
14292;SDS011;62290;59.420;17.842;2023-04-01T01:42:54;1.58;;;0.60;;
14292;SDS011;62290;59.420;17.842;2023-04-01T01:45:27;1.00;;;0.75;;
14292;SDS011;62290;59.420;17.842;2023-04-01T01:47:59;0.65;;;0.57;;
14292;SDS011;62290;59.420;17.842;2023-04-01T01:50:30;0.70;;;0.57;;
14292;SDS011;62290;59.420;17.842;2023-04-01T01:53:01;1.10;;;0.60;;
14292;SDS011;62290;59.420;17.842;2023-04-01T01:55:31;0.40;;;0.40;;
14292;SDS011;62290;59.420;17.842;2023-04-01T01:58:02;1.23;;;0.50;;
14292;SDS011;62290;59.420;17.842;2023-04-01T02:00:39;1.27;;;0.55;;
14292;SDS011;62290;59.420;17.842;2023-04-01T02:03:11;0.65;;;0.47;;
14292;SDS011;62290;59.420;17.842;2023-04-01T02:05:42;0.50;;;0.40;;
14292;SDS011;62290;59.420;17.842;2023-04-01T02:08:13;0.50;;;0.50;;
14292;SDS011;62290;59.420;17.842;2023-04-01T02:10:46;0.60;;;0.60;;
14292;SDS011;62290;59.420;17.842;2023-04-01T02:13:25;0.60;;;0.60;;
14292;SDS011;62290;59.420;17.842;2023-04-01T02:15:58;0.95;;;0.60;;
14292;SDS011;62290;59.420;17.842;2023-04-01T02:18:31;0.60;;;0.60;;
14292;SDS011;62290;59.420;17.842;2023-04-01T02:21:06;0.40;;;0.40;;
14292;SDS011;62290;59.420;17.842;2023-04-01T02:23:36;0.55;;;0.55;;
14292;SDS011;62290;59.420;17.842;2023-04-01T02:26:05;0.50;;;0.43;;
14292;SDS011;62290;59.420;17.842;2023-04-01T02:28:36;1.02;;;0.65;;
14292;SDS011;62290;59.420;17.842;2023-04-01T02:31:07;0.90;;;0.50;;
14292;SDS011;62290;59.420;17.842;2023-04-01T02:33:37;1.17;;;0.75;;
14292;SDS011;62290;59.420;17.842;2023-04-01T02:36:11;1.42;;;0.70;;
14292;SDS011;62290;59.420;17.842;2023-04-01T02:38:41;0.55;;;0.40;;
14292;SDS011;62290;59.420;17.842;2023-04-01T02:41:11;0.30;;;0.30;;
14292;SDS011;62290;59.420;17.842;2023-04-01T02:43:40;0.60;;;0.50;;
14292;SDS011;62290;59.420;17.842;2023-04-01T02:46:08;0.60;;;0.55;;
14292;SDS011;62290;59.420;17.842;2023-04-01T02:48:37;0.50;;;0.40;;
14292;SDS011;62290;59.420;17.842;2023-04-01T02:51:05;0.52;;;0.47;;
14292;SDS011;62290;59.420;17.842;2023-04-01T02:53:34;0.63;;;0.50;;
14292;SDS011;62290;59.420;17.842;2023-04-01T02:56:02;0.43;;;0.43;;
14292;SDS011;62290;59.420;17.842;2023-04-01T02:58:31;1.60;;;0.60;;
14292;SDS011;62290;59.420;17.842;2023-04-01T03:00:59;0.73;;;0.60;;
14292;SDS011;62290;59.420;17.842;2023-04-01T03:03:27;0.50;;;0.40;;
14292;SDS011;62290;59.420;17.842;2023-04-01T03:05:55;1.70;;;1.05;;
14292;SDS011;62290;59.420;17.842;2023-04-01T03:08:25;0.63;;;0.63;;
14292;SDS011;62290;59.420;17.842;2023-04-01T03:10:54;0.45;;;0.40;;
14292;SDS011;62290;59.420;17.842;2023-04-01T03:13:25;0.50;;;0.47;;
14292;SDS011;62290;59.420;17.842;2023-04-01T03:15:53;0.60;;;0.50;;
14292;SDS011;62290;59.420;17.842;2023-04-01T03:18:21;0.60;;;0.50;;
14292;SDS011;62290;59.420;17.842;2023-04-01T03:20:49;0.63;;;0.50;;
14292;SDS011;62290;59.420;17.842;2023-04-01T03:23:17;1.70;;;0.60;;
14292;SDS011;62290;59.420;17.842;2023-04-01T03:25:47;1.15;;;0.60;;
14292;SDS011;62290;59.420;17.842;2023-04-01T03:28:17;0.60;;;0.40;;
14292;SDS011;62290;59.420;17.842;2023-04-01T03:30:45;1.27;;;0.40;;
14292;SDS011;62290;59.420;17.842;2023-04-01T03:33:13;0.32;;;0.32;;
14292;SDS011;62290;59.420;17.842;2023-04-01T03:35:41;0.65;;;0.65;;
14292;SDS011;62290;59.420;17.842;2023-04-01T03:38:09;1.02;;;0.68;;
14292;SDS011;62290;59.420;17.842;2023-04-01T03:40:38;1.95;;;0.60;;
14292;SDS011;62290;59.420;17.842;2023-04-01T03:43:10;0.77;;;0.50;;
14292;SDS011;62290;59.420;17.842;2023-04-01T03:45:44;1.13;;;0.50;;
14292;SDS011;62290;59.420;17.842;2023-04-01T03:48:13;1.13;;;0.60;;
14292;SDS011;62290;59.420;17.842;2023-04-01T03:50:41;0.65;;;0.60;;
14292;SDS011;62290;59.420;17.842;2023-04-01T03:53:10;1.30;;;0.52;;
14292;SDS011;62290;59.420;17.842;2023-04-01T03:55:41;1.65;;;0.55;;
14292;SDS011;62290;59.420;17.842;2023-04-01T03:58:09;1.73;;;0.57;;
14292;SDS011;62290;59.420;17.842;2023-04-01T04:00:37;0.95;;;0.60;;
14292;SDS011;62290;59.420;17.842;2023-04-01T04:03:10;1.00;;;0.52;;
14292;SDS011;62290;59.420;17.842;2023-04-01T04:05:45;1.02;;;0.60;;
14292;SDS011;62290;59.420;17.842;2023-04-01T04:08:16;2.78;;;0.65;;
14292;SDS011;62290;59.420;17.842;2023-04-01T04:10:44;0.52;;;0.40;;
14292;SDS011;62290;59.420;17.842;2023-04-01T04:13:12;0.68;;;0.47;;
14292;SDS011;62290;59.420;17.842;2023-04-01T04:15:48;0.50;;;0.50;;
14292;SDS011;62290;59.420;17.842;2023-04-01T04:18:17;0.90;;;0.50;;
14292;SDS011;62290;59.420;17.842;2023-04-01T04:20:45;0.32;;;0.30;;
14292;SDS011;62290;59.420;17.842;2023-04-01T04:23:17;0.50;;;0.50;;
14292;SDS011;62290;59.420;17.842;2023-04-01T04:25:52;0.77;;;0.57;;
14292;SDS011;62290;59.420;17.842;2023-04-01T04:28:21;0.80;;;0.60;;
14292;SDS011;62290;59.420;17.842;2023-04-01T04:30:51;0.77;;;0.55;;
14292;SDS011;62290;59.420;17.842;2023-04-01T04:33:21;0.65;;;0.57;;
14292;SDS011;62290;59.420;17.842;2023-04-01T04:35:50;1.08;;;0.47;;
14292;SDS011;62290;59.420;17.842;2023-04-01T04:38:19;0.82;;;0.43;;
14292;SDS011;62290;59.420;17.842;2023-04-01T04:40:47;0.43;;;0.43;;
14292;SDS011;62290;59.420;17.842;2023-04-01T04:43:15;1.75;;;0.40;;
14292;SDS011;62290;59.420;17.842;2023-04-01T04:45:44;0.63;;;0.40;;
14292;SDS011;62290;59.420;17.842;2023-04-01T04:48:13;0.47;;;0.40;;
14292;SDS011;62290;59.420;17.842;2023-04-01T04:50:47;0.50;;;0.50;;
14292;SDS011;62290;59.420;17.842;2023-04-01T04:53:19;0.50;;;0.50;;
14292;SDS011;62290;59.420;17.842;2023-04-01T04:55:47;0.82;;;0.47;;
14292;SDS011;62290;59.420;17.842;2023-04-01T04:58:46;0.88;;;0.43;;
14292;SDS011;62290;59.420;17.842;2023-04-01T05:01:18;0.75;;;0.50;;
14292;SDS011;62290;59.420;17.842;2023-04-01T05:03:46;0.45;;;0.40;;
14292;SDS011;62290;59.420;17.842;2023-04-01T05:06:16;0.55;;;0.43;;
14292;SDS011;62290;59.420;17.842;2023-04-01T05:08:47;0.45;;;0.45;;
14292;SDS011;62290;59.420;17.842;2023-04-01T05:11:17;1.77;;;0.50;;
14292;SDS011;62290;59.420;17.842;2023-04-01T05:13:48;2.70;;;0.45;;
14292;SDS011;62290;59.420;17.842;2023-04-01T05:16:17;1.58;;;0.50;;
14292;SDS011;62290;59.420;17.842;2023-04-01T05:18:46;0.68;;;0.40;;
14292;SDS011;62290;59.420;17.842;2023-04-01T05:21:16;0.50;;;0.40;;
14292;SDS011;62290;59.420;17.842;2023-04-01T05:23:44;0.43;;;0.40;;
14292;SDS011;62290;59.420;17.842;2023-04-01T05:26:13;0.47;;;0.47;;
14292;SDS011;62290;59.420;17.842;2023-04-01T05:28:42;1.33;;;0.43;;
14292;SDS011;62290;59.420;17.842;2023-04-01T05:31:10;0.75;;;0.65;;
14292;SDS011;62290;59.420;17.842;2023-04-01T05:33:40;0.47;;;0.30;;
14292;SDS011;62290;59.420;17.842;2023-04-01T05:36:09;1.15;;;0.50;;
14292;SDS011;62290;59.420;17.842;2023-04-01T05:38:41;1.95;;;0.60;;
14292;SDS011;62290;59.420;17.842;2023-04-01T05:41:12;0.55;;;0.50;;
14292;SDS011;62290;59.420;17.842;2023-04-01T05:43:43;0.63;;;0.63;;
14292;SDS011;62290;59.420;17.842;2023-04-01T05:46:43;0.80;;;0.50;;
14292;SDS011;62290;59.420;17.842;2023-04-01T05:49:23;1.98;;;0.70;;
14292;SDS011;62290;59.420;17.842;2023-04-01T05:51:54;0.60;;;0.47;;
14292;SDS011;62290;59.420;17.842;2023-04-01T05:54:24;4.10;;;0.47;;
14292;SDS011;62290;59.420;17.842;2023-04-01T05:56:52;0.82;;;0.32;;
14292;SDS011;62290;59.420;17.842;2023-04-01T05:59:20;0.68;;;0.60;;
14292;SDS011;62290;59.420;17.842;2023-04-01T06:01:49;1.02;;;0.40;;
14292;SDS011;62290;59.420;17.842;2023-04-01T06:04:18;0.50;;;0.40;;
14292;SDS011;62290;59.420;17.842;2023-04-01T06:06:47;1.45;;;0.80;;
14292;SDS011;62290;59.420;17.842;2023-04-01T06:09:16;1.83;;;0.50;;
14292;SDS011;62290;59.420;17.842;2023-04-01T06:12:00;0.55;;;0.50;;
14292;SDS011;62290;59.420;17.842;2023-04-01T06:14:57;0.45;;;0.40;;
14292;SDS011;62290;59.420;17.842;2023-04-01T06:17:36;0.70;;;0.50;;
14292;SDS011;62290;59.420;17.842;2023-04-01T06:20:19;1.15;;;0.63;;
14292;SDS011;62290;59.420;17.842;2023-04-01T06:23:00;0.47;;;0.43;;
14292;SDS011;62290;59.420;17.842;2023-04-01T06:25:40;0.63;;;0.50;;
14292;SDS011;62290;59.420;17.842;2023-04-01T06:31:38;1.58;;;0.60;;
14292;SDS011;62290;59.420;17.842;2023-04-01T06:37:35;1.23;;;0.60;;
14292;SDS011;62290;59.420;17.842;2023-04-01T06:43:15;4.22;;;0.50;;
14292;SDS011;62290;59.420;17.842;2023-04-01T06:46:12;1.23;;;0.40;;
14292;SDS011;62290;59.420;17.842;2023-04-01T06:49:19;3.60;;;0.52;;
14292;SDS011;62290;59.420;17.842;2023-04-01T06:52:16;0.60;;;0.40;;
14292;SDS011;62290;59.420;17.842;2023-04-01T06:55:14;0.63;;;0.60;;
14292;SDS011;62290;59.420;17.842;2023-04-01T06:58:24;0.70;;;0.50;;
14292;SDS011;62290;59.420;17.842;2023-04-01T07:00:56;1.35;;;0.68;;
14292;SDS011;62290;59.420;17.842;2023-04-01T07:03:30;0.68;;;0.50;;
14292;SDS011;62290;59.420;17.842;2023-04-01T07:06:05;0.80;;;0.50;;
14292;SDS011;62290;59.420;17.842;2023-04-01T07:08:41;1.83;;;0.80;;
14292;SDS011;62290;59.420;17.842;2023-04-01T07:11:15;1.38;;;0.40;;
14292;SDS011;62290;59.420;17.842;2023-04-01T07:14:29;0.95;;;0.55;;
14292;SDS011;62290;59.420;17.842;2023-04-01T07:17:01;0.73;;;0.45;;
14292;SDS011;62290;59.420;17.842;2023-04-01T07:19:36;0.63;;;0.40;;
14292;SDS011;62290;59.420;17.842;2023-04-01T07:22:15;1.00;;;0.60;;
14292;SDS011;62290;59.420;17.842;2023-04-01T07:25:05;1.45;;;0.60;;
14292;SDS011;62290;59.420;17.842;2023-04-01T07:27:41;0.45;;;0.38;;
14292;SDS011;62290;59.420;17.842;2023-04-01T07:30:13;0.95;;;0.50;;
14292;SDS011;62290;59.420;17.842;2023-04-01T07:32:44;0.85;;;0.50;;
14292;SDS011;62290;59.420;17.842;2023-04-01T07:35:19;0.95;;;0.40;;
14292;SDS011;62290;59.420;17.842;2023-04-01T07:37:58;0.60;;;0.32;;
14292;SDS011;62290;59.420;17.842;2023-04-01T07:40:39;1.23;;;0.60;;
14292;SDS011;62290;59.420;17.842;2023-04-01T07:43:22;0.38;;;0.32;;
14292;SDS011;62290;59.420;17.842;2023-04-01T07:46:25;1.98;;;0.75;;
14292;SDS011;62290;59.420;17.842;2023-04-01T07:49:08;1.05;;;0.70;;
14292;SDS011;62290;59.420;17.842;2023-04-01T07:51:44;0.85;;;0.52;;
14292;SDS011;62290;59.420;17.842;2023-04-01T07:54:19;0.93;;;0.52;;
14292;SDS011;62290;59.420;17.842;2023-04-01T07:56:55;2.25;;;0.50;;
14292;SDS011;62290;59.420;17.842;2023-04-01T07:59:56;1.00;;;0.47;;
14292;SDS011;62290;59.420;17.842;2023-04-01T08:02:57;1.38;;;0.30;;
14292;SDS011;62290;59.420;17.842;2023-04-01T08:05:40;1.48;;;0.55;;
14292;SDS011;62290;59.420;17.842;2023-04-01T08:08:18;1.10;;;0.50;;
14292;SDS011;62290;59.420;17.842;2023-04-01T08:10:59;0.40;;;0.40;;
14292;SDS011;62290;59.420;17.842;2023-04-01T08:13:59;1.00;;;0.57;;
14292;SDS011;62290;59.420;17.842;2023-04-01T08:16:53;0.95;;;0.50;;
14292;SDS011;62290;59.420;17.842;2023-04-01T08:19:42;1.75;;;0.50;;
14292;SDS011;62290;59.420;17.842;2023-04-01T08:22:19;2.08;;;0.65;;
14292;SDS011;62290;59.420;17.842;2023-04-01T08:24:58;1.52;;;0.40;;
14292;SDS011;62290;59.420;17.842;2023-04-01T08:27:31;1.27;;;0.40;;
14292;SDS011;62290;59.420;17.842;2023-04-01T08:30:06;2.08;;;0.65;;
14292;SDS011;62290;59.420;17.842;2023-04-01T08:32:46;3.40;;;0.55;;
14292;SDS011;62290;59.420;17.842;2023-04-01T08:35:19;0.85;;;0.50;;
14292;SDS011;62290;59.420;17.842;2023-04-01T08:37:59;6.85;;;0.55;;
14292;SDS011;62290;59.420;17.842;2023-04-01T08:40:46;3.70;;;0.52;;
14292;SDS011;62290;59.420;17.842;2023-04-01T08:50:24;1.55;;;0.60;;
14292;SDS011;62290;59.420;17.842;2023-04-01T08:53:15;2.10;;;0.52;;
14292;SDS011;62290;59.420;17.842;2023-04-01T08:56:00;7.80;;;0.95;;
14292;SDS011;62290;59.420;17.842;2023-04-01T09:01:44;5.45;;;0.95;;
14292;SDS011;62290;59.420;17.842;2023-04-01T09:05:12;2.95;;;0.65;;
14292;SDS011;62290;59.420;17.842;2023-04-01T09:08:05;2.40;;;0.60;;
14292;SDS011;62290;59.420;17.842;2023-04-01T09:10:57;1.52;;;0.75;;
14292;SDS011;62290;59.420;17.842;2023-04-01T09:14:05;1.35;;;0.50;;
14292;SDS011;62290;59.420;17.842;2023-04-01T09:17:00;3.97;;;0.73;;
14292;SDS011;62290;59.420;17.842;2023-04-01T09:19:56;4.07;;;0.75;;
14292;SDS011;62290;59.420;17.842;2023-04-01T09:22:39;4.35;;;0.75;;
14292;SDS011;62290;59.420;17.842;2023-04-01T09:25:26;1.88;;;0.70;;
14292;SDS011;62290;59.420;17.842;2023-04-01T09:28:12;2.38;;;0.88;;
14292;SDS011;62290;59.420;17.842;2023-04-01T09:31:00;6.40;;;0.90;;
14292;SDS011;62290;59.420;17.842;2023-04-01T09:37:19;3.35;;;0.80;;
14292;SDS011;62290;59.420;17.842;2023-04-01T09:40:02;3.22;;;0.60;;
14292;SDS011;62290;59.420;17.842;2023-04-01T09:42:45;4.88;;;0.77;;
14292;SDS011;62290;59.420;17.842;2023-04-01T09:45:40;1.33;;;0.60;;
14292;SDS011;62290;59.420;17.842;2023-04-01T09:48:19;0.68;;;0.50;;
14292;SDS011;62290;59.420;17.842;2023-04-01T09:51:01;1.52;;;0.68;;
14292;SDS011;62290;59.420;17.842;2023-04-01T09:53:42;1.65;;;0.60;;
14292;SDS011;62290;59.420;17.842;2023-04-01T09:56:37;1.75;;;0.50;;
14292;SDS011;62290;59.420;17.842;2023-04-01T10:03:08;3.05;;;0.55;;
14292;SDS011;62290;59.420;17.842;2023-04-01T10:06:18;2.88;;;0.47;;
14292;SDS011;62290;59.420;17.842;2023-04-01T10:15:34;4.30;;;0.70;;
14292;SDS011;62290;59.420;17.842;2023-04-01T10:27:55;76.25;;;46.35;;
14292;SDS011;62290;59.420;17.842;2023-04-01T10:31:27;69.20;;;42.42;;
14292;SDS011;62290;59.420;17.842;2023-04-01T10:37:32;35.53;;;21.90;;
14292;SDS011;62290;59.420;17.842;2023-04-01T10:53:00;13.15;;;5.90;;
14292;SDS011;62290;59.420;17.842;2023-04-01T11:10:05;7.60;;;3.78;;
14292;SDS011;62290;59.420;17.842;2023-04-01T11:13:29;5.85;;;2.72;;
14292;SDS011;62290;59.420;17.842;2023-04-01T11:16:30;5.22;;;2.95;;
14292;SDS011;62290;59.420;17.842;2023-04-01T11:19:32;4.15;;;2.33;;
14292;SDS011;62290;59.420;17.842;2023-04-01T11:22:32;7.70;;;2.33;;
14292;SDS011;62290;59.420;17.842;2023-04-01T11:31:40;5.75;;;1.88;;
14292;SDS011;62290;59.420;17.842;2023-04-01T11:37:14;2.83;;;1.48;;
14292;SDS011;62290;59.420;17.842;2023-04-01T11:40:20;4.97;;;1.83;;
14292;SDS011;62290;59.420;17.842;2023-04-01T11:43:23;4.68;;;1.58;;
14292;SDS011;62290;59.420;17.842;2023-04-01T11:46:33;2.55;;;1.25;;
14292;SDS011;62290;59.420;17.842;2023-04-01T11:49:16;2.28;;;1.17;;
14292;SDS011;62290;59.420;17.842;2023-04-01T11:52:16;4.22;;;1.35;;
14292;SDS011;62290;59.420;17.842;2023-04-01T11:55:15;1.92;;;1.25;;
14292;SDS011;62290;59.420;17.842;2023-04-01T11:58:06;13.48;;;1.13;;
14292;SDS011;62290;59.420;17.842;2023-04-01T12:03:48;2.03;;;1.05;;
14292;SDS011;62290;59.420;17.842;2023-04-01T12:06:37;1.58;;;1.00;;
14292;SDS011;62290;59.420;17.842;2023-04-01T12:09:18;8.50;;;1.25;;
14292;SDS011;62290;59.420;17.842;2023-04-01T12:11:57;3.80;;;1.13;;
14292;SDS011;62290;59.420;17.842;2023-04-01T12:14:39;4.97;;;1.30;;
14292;SDS011;62290;59.420;17.842;2023-04-01T12:17:15;6.20;;;1.42;;
14292;SDS011;62290;59.420;17.842;2023-04-01T12:19:57;4.90;;;1.02;;
14292;SDS011;62290;59.420;17.842;2023-04-01T12:22:35;4.07;;;1.05;;
14292;SDS011;62290;59.420;17.842;2023-04-01T12:25:16;7.47;;;1.40;;
14292;SDS011;62290;59.420;17.842;2023-04-01T12:27:59;2.33;;;0.88;;
14292;SDS011;62290;59.420;17.842;2023-04-01T12:33:37;8.65;;;1.20;;
14292;SDS011;62290;59.420;17.842;2023-04-01T12:36:19;9.82;;;1.20;;
14292;SDS011;62290;59.420;17.842;2023-04-01T12:39:06;3.22;;;0.90;;
14292;SDS011;62290;59.420;17.842;2023-04-01T12:41:52;3.85;;;0.70;;
14292;SDS011;62290;59.420;17.842;2023-04-01T12:44:33;4.57;;;0.82;;
14292;SDS011;62290;59.420;17.842;2023-04-01T12:47:13;2.95;;;0.50;;
14292;SDS011;62290;59.420;17.842;2023-04-01T12:52:55;3.22;;;0.70;;
14292;SDS011;62290;59.420;17.842;2023-04-01T12:55:39;2.88;;;0.60;;
14292;SDS011;62290;59.420;17.842;2023-04-01T12:58:14;2.40;;;0.57;;
14292;SDS011;62290;59.420;17.842;2023-04-01T13:01:27;4.28;;;0.70;;
14292;SDS011;62290;59.420;17.842;2023-04-01T13:07:24;2.35;;;0.60;;
14292;SDS011;62290;59.420;17.842;2023-04-01T13:10:06;2.72;;;0.50;;
14292;SDS011;62290;59.420;17.842;2023-04-01T13:15:52;50.20;;;10.43;;
14292;SDS011;62290;59.420;17.842;2023-04-01T13:18:27;27.83;;;6.10;;
14292;SDS011;62290;59.420;17.842;2023-04-01T13:21:08;22.65;;;4.50;;
14292;SDS011;62290;59.420;17.842;2023-04-01T13:23:48;10.93;;;2.92;;
14292;SDS011;62290;59.420;17.842;2023-04-01T13:26:26;8.00;;;2.40;;
14292;SDS011;62290;59.420;17.842;2023-04-01T13:29:01;6.43;;;1.65;;
14292;SDS011;62290;59.420;17.842;2023-04-01T13:31:38;7.57;;;1.67;;
14292;SDS011;62290;59.420;17.842;2023-04-01T13:34:28;5.60;;;1.50;;
14292;SDS011;62290;59.420;17.842;2023-04-01T13:37:10;5.07;;;1.23;;
14292;SDS011;62290;59.420;17.842;2023-04-01T13:40:13;4.70;;;1.35;;
14292;SDS011;62290;59.420;17.842;2023-04-01T13:43:02;5.32;;;0.95;;
14292;SDS011;62290;59.420;17.842;2023-04-01T13:45:38;6.63;;;0.82;;
14292;SDS011;62290;59.420;17.842;2023-04-01T13:51:13;1.95;;;1.00;;
14292;SDS011;62290;59.420;17.842;2023-04-01T13:57:11;1.77;;;0.60;;
14292;SDS011;62290;59.420;17.842;2023-04-01T14:02:57;4.05;;;0.82;;
14292;SDS011;62290;59.420;17.842;2023-04-01T14:05:51;2.03;;;0.80;;
14292;SDS011;62290;59.420;17.842;2023-04-01T14:08:29;4.13;;;0.73;;
14292;SDS011;62290;59.420;17.842;2023-04-01T14:11:13;2.20;;;0.70;;
14292;SDS011;62290;59.420;17.842;2023-04-01T14:13:50;2.25;;;0.47;;
14292;SDS011;62290;59.420;17.842;2023-04-01T14:19:41;3.22;;;0.73;;
14292;SDS011;62290;59.420;17.842;2023-04-01T14:22:22;3.10;;;0.50;;
14292;SDS011;62290;59.420;17.842;2023-04-01T14:25:01;2.97;;;0.57;;
14292;SDS011;62290;59.420;17.842;2023-04-01T14:27:53;1.75;;;0.70;;
14292;SDS011;62290;59.420;17.842;2023-04-01T14:30:31;2.03;;;0.38;;
14292;SDS011;62290;59.420;17.842;2023-04-01T14:33:15;0.65;;;0.28;;
14292;SDS011;62290;59.420;17.842;2023-04-01T14:35:57;1.17;;;0.38;;
14292;SDS011;62290;59.420;17.842;2023-04-01T14:38:43;3.08;;;0.77;;
14292;SDS011;62290;59.420;17.842;2023-04-01T14:41:24;0.68;;;0.35;;
14292;SDS011;62290;59.420;17.842;2023-04-01T14:50:02;1.48;;;0.43;;
14292;SDS011;62290;59.420;17.842;2023-04-01T14:52:35;1.88;;;0.50;;
14292;SDS011;62290;59.420;17.842;2023-04-01T14:55:15;3.85;;;0.75;;
14292;SDS011;62290;59.420;17.842;2023-04-01T14:57:57;3.25;;;0.30;;
14292;SDS011;62290;59.420;17.842;2023-04-01T15:00:27;2.25;;;0.50;;
14292;SDS011;62290;59.420;17.842;2023-04-01T15:03:18;0.90;;;0.40;;
14292;SDS011;62290;59.420;17.842;2023-04-01T15:05:55;1.25;;;0.40;;
14292;SDS011;62290;59.420;17.842;2023-04-01T15:08:29;2.50;;;0.30;;
14292;SDS011;62290;59.420;17.842;2023-04-01T15:14:01;1.55;;;0.20;;
14292;SDS011;62290;59.420;17.842;2023-04-01T15:16:41;1.08;;;0.30;;
14292;SDS011;62290;59.420;17.842;2023-04-01T15:19:21;0.98;;;0.30;;
14292;SDS011;62290;59.420;17.842;2023-04-01T15:22:05;1.33;;;0.43;;
14292;SDS011;62290;59.420;17.842;2023-04-01T15:24:59;0.88;;;0.40;;
14292;SDS011;62290;59.420;17.842;2023-04-01T15:27:44;0.98;;;0.30;;
14292;SDS011;62290;59.420;17.842;2023-04-01T15:30:21;4.57;;;0.20;;
14292;SDS011;62290;59.420;17.842;2023-04-01T15:32:58;2.03;;;0.40;;
14292;SDS011;62290;59.420;17.842;2023-04-01T15:35:43;1.15;;;0.47;;
14292;SDS011;62290;59.420;17.842;2023-04-01T15:38:20;14.05;;;0.50;;
14292;SDS011;62290;59.420;17.842;2023-04-01T15:41:00;1.27;;;0.40;;
14292;SDS011;62290;59.420;17.842;2023-04-01T15:43:38;1.27;;;0.50;;
14292;SDS011;62290;59.420;17.842;2023-04-01T15:49:11;1.48;;;0.35;;
14292;SDS011;62290;59.420;17.842;2023-04-01T15:51:54;1.83;;;0.38;;
14292;SDS011;62290;59.420;17.842;2023-04-01T15:54:51;1.15;;;0.40;;
14292;SDS011;62290;59.420;17.842;2023-04-01T15:57:29;1.10;;;0.47;;
14292;SDS011;62290;59.420;17.842;2023-04-01T16:00:19;2.28;;;0.47;;
14292;SDS011;62290;59.420;17.842;2023-04-01T16:03:00;2.08;;;0.40;;
14292;SDS011;62290;59.420;17.842;2023-04-01T16:05:51;1.65;;;0.30;;
14292;SDS011;62290;59.420;17.842;2023-04-01T16:08:44;2.83;;;0.50;;
14292;SDS011;62290;59.420;17.842;2023-04-01T16:11:27;0.28;;;0.28;;
14292;SDS011;62290;59.420;17.842;2023-04-01T16:14:07;4.57;;;0.40;;
14292;SDS011;62290;59.420;17.842;2023-04-01T16:16:48;1.63;;;0.57;;
14292;SDS011;62290;59.420;17.842;2023-04-01T16:22:19;0.40;;;0.30;;
14292;SDS011;62290;59.420;17.842;2023-04-01T16:24:53;2.13;;;0.40;;
14292;SDS011;62290;59.420;17.842;2023-04-01T16:27:29;0.90;;;0.45;;
14292;SDS011;62290;59.420;17.842;2023-04-01T16:30:16;1.38;;;0.50;;
14292;SDS011;62290;59.420;17.842;2023-04-01T16:32:57;1.52;;;0.40;;
14292;SDS011;62290;59.420;17.842;2023-04-01T16:35:34;1.25;;;0.50;;
14292;SDS011;62290;59.420;17.842;2023-04-01T16:38:11;1.80;;;0.40;;
14292;SDS011;62290;59.420;17.842;2023-04-01T16:40:50;1.67;;;0.60;;
14292;SDS011;62290;59.420;17.842;2023-04-01T16:43:27;1.58;;;0.52;;
14292;SDS011;62290;59.420;17.842;2023-04-01T16:46:12;2.20;;;0.70;;
14292;SDS011;62290;59.420;17.842;2023-04-01T16:48:50;2.80;;;0.50;;
14292;SDS011;62290;59.420;17.842;2023-04-01T16:51:26;1.13;;;0.50;;
14292;SDS011;62290;59.420;17.842;2023-04-01T16:54:04;2.90;;;0.68;;
14292;SDS011;62290;59.420;17.842;2023-04-01T16:56:42;4.88;;;0.93;;
14292;SDS011;62290;59.420;17.842;2023-04-01T16:59:16;2.88;;;0.70;;
14292;SDS011;62290;59.420;17.842;2023-04-01T17:01:51;3.53;;;0.90;;
14292;SDS011;62290;59.420;17.842;2023-04-01T17:04:24;1.48;;;0.85;;
14292;SDS011;62290;59.420;17.842;2023-04-01T17:07:01;2.30;;;0.47;;
14292;SDS011;62290;59.420;17.842;2023-04-01T17:09:42;2.67;;;0.60;;
14292;SDS011;62290;59.420;17.842;2023-04-01T17:12:22;1.27;;;0.55;;
14292;SDS011;62290;59.420;17.842;2023-04-01T17:14:59;0.68;;;0.32;;
14292;SDS011;62290;59.420;17.842;2023-04-01T17:17:35;2.67;;;0.50;;
14292;SDS011;62290;59.420;17.842;2023-04-01T17:20:19;2.25;;;0.70;;
14292;SDS011;62290;59.420;17.842;2023-04-01T17:22:59;2.10;;;0.57;;
14292;SDS011;62290;59.420;17.842;2023-04-01T17:25:34;2.05;;;0.30;;
14292;SDS011;62290;59.420;17.842;2023-04-01T17:28:13;1.38;;;0.63;;
14292;SDS011;62290;59.420;17.842;2023-04-01T17:30:53;0.93;;;0.40;;
14292;SDS011;62290;59.420;17.842;2023-04-01T17:33:38;1.90;;;0.70;;
14292;SDS011;62290;59.420;17.842;2023-04-01T17:36:16;2.55;;;0.80;;
14292;SDS011;62290;59.420;17.842;2023-04-01T17:38:58;3.58;;;0.80;;
14292;SDS011;62290;59.420;17.842;2023-04-01T17:41:41;3.10;;;0.93;;
14292;SDS011;62290;59.420;17.842;2023-04-01T17:44:18;0.95;;;0.50;;
14292;SDS011;62290;59.420;17.842;2023-04-01T17:47:03;1.90;;;0.75;;